createdAt,value
2018-12-13T00:00:12.152Z,3.02
2018-12-13T00:05:14.653Z,2.37
2018-12-13T00:10:17.165Z,2.40
2018-12-13T00:15:21.552Z,1.80
2018-12-13T00:20:24.044Z,2.80
2018-12-13T00:25:26.512Z,2.33
2018-12-13T00:30:28.981Z,1.57
2018-12-13T00:35:31.444Z,2.00
2018-12-13T00:40:33.909Z,2.07
2018-12-13T00:45:36.373Z,1.93
2018-12-13T00:50:38.849Z,1.60
2018-12-13T00:55:41.326Z,2.27
2018-12-13T01:00:43.792Z,4.53
2018-12-13T01:05:46.290Z,2.63
2018-12-13T01:10:48.785Z,2.05
2018-12-13T01:15:51.248Z,1.53
2018-12-13T01:20:53.738Z,2.30
2018-12-13T01:25:56.836Z,1.77
2018-12-13T01:30:59.296Z,2.87
2018-12-13T01:36:01.760Z,2.47
2018-12-13T01:41:04.296Z,1.63
2018-12-13T01:46:06.911Z,1.57
2018-12-13T01:51:09.434Z,2.20
2018-12-13T01:56:11.924Z,1.70
2018-12-13T02:01:14.473Z,1.70
2018-12-13T02:06:17.159Z,2.27
2018-12-13T02:11:19.861Z,1.70
2018-12-13T02:16:22.470Z,1.87
2018-12-13T02:21:24.951Z,1.77
2018-12-13T02:26:28.104Z,3.47
2018-12-13T02:31:30.793Z,1.90
2018-12-13T02:36:33.286Z,1.47
2018-12-13T02:41:35.765Z,2.30
2018-12-13T02:46:38.237Z,1.50
2018-12-13T02:51:40.692Z,1.30
2018-12-13T02:56:43.320Z,1.97
2018-12-13T03:01:46.294Z,1.47
2018-12-13T03:06:48.771Z,2.30
2018-12-13T03:11:52.083Z,1.67
2018-12-13T03:16:54.717Z,1.27
2018-12-13T03:21:57.510Z,1.80
2018-12-13T03:26:59.968Z,2.17
2018-12-13T03:32:02.579Z,1.40
2018-12-13T03:37:05.191Z,2.23
2018-12-13T03:42:07.896Z,1.93
2018-12-13T03:47:10.740Z,2.27
2018-12-13T03:52:13.225Z,1.77
2018-12-13T03:57:15.770Z,1.80
2018-12-13T04:02:18.469Z,2.10
2018-12-13T04:07:27.624Z,1.93
2018-12-13T04:12:25.455Z,1.37
2018-12-13T04:17:27.962Z,2.30
2018-12-13T04:22:30.507Z,1.50
2018-12-13T04:27:32.973Z,1.67
2018-12-13T04:32:36.369Z,1.70
2018-12-13T04:37:39.105Z,1.77
2018-12-13T04:42:41.568Z,2.23
2018-12-13T04:47:44.044Z,1.83
2018-12-13T04:52:46.548Z,1.87
2018-12-13T04:57:49.030Z,1.40
2018-12-13T05:02:51.744Z,1.67
2018-12-13T05:07:54.293Z,1.53
2018-12-13T05:12:56.808Z,1.93
2018-12-13T05:17:59.330Z,1.33
2018-12-13T05:23:01.831Z,2.10
2018-12-13T05:28:04.356Z,1.30
2018-12-13T05:33:06.904Z,2.27
2018-12-13T05:38:10.080Z,1.50
2018-12-13T05:43:12.728Z,2.07
2018-12-13T05:48:15.188Z,2.73
2018-12-13T05:53:18.517Z,1.40
2018-12-13T05:58:21.014Z,1.60
2018-12-13T06:03:23.486Z,1.30
2018-12-13T06:08:25.999Z,2.13
2018-12-13T06:13:28.510Z,1.97
2018-12-13T06:18:30.986Z,1.67
2018-12-13T06:23:33.462Z,2.20
2018-12-13T06:28:35.941Z,3.00
2018-12-13T06:33:38.474Z,2.03
2018-12-13T06:38:41.026Z,1.07
2018-12-13T06:43:44.395Z,1.20
2018-12-13T06:48:46.860Z,3.17
2018-12-13T06:53:49.323Z,1.83
2018-12-13T06:58:51.780Z,1.77
2018-12-13T07:03:55.070Z,2.40
2018-12-13T07:08:57.564Z,2.10
2018-12-13T07:14:00.060Z,1.90
2018-12-13T07:19:02.544Z,3.60
2018-12-13T07:24:05.041Z,1.70
2018-12-13T07:29:07.504Z,3.40
2018-12-13T07:34:09.975Z,1.60
2018-12-13T07:39:12.481Z,1.83
2018-12-13T07:44:14.985Z,3.83
2018-12-13T07:49:18.128Z,2.23
2018-12-13T07:54:20.600Z,19.77
2018-12-13T07:59:23.090Z,26.37
2018-12-13T08:04:25.560Z,32.43
2018-12-13T08:09:28.040Z,25.00
2018-12-13T08:14:30.545Z,23.47
2018-12-13T08:19:33.044Z,20.63
2018-12-13T08:24:35.521Z,21.50
2018-12-13T08:29:38.069Z,16.30
2018-12-13T08:34:40.541Z,14.70
2018-12-13T08:39:43.033Z,13.27
2018-12-13T08:44:45.695Z,14.00
2018-12-13T08:49:48.185Z,11.03
2018-12-13T08:54:50.660Z,11.73
2018-12-13T08:59:53.137Z,11.97
2018-12-13T09:04:55.660Z,10.23
2018-12-13T09:09:58.116Z,9.87
2018-12-13T09:15:00.600Z,10.97
2018-12-13T09:20:04.273Z,9.70
2018-12-13T09:25:06.809Z,11.07
2018-12-13T09:30:09.343Z,8.73
2018-12-13T09:35:11.817Z,9.58
2018-12-13T09:40:15.201Z,10.63
2018-12-13T09:45:17.744Z,9.15
2018-12-13T09:50:20.545Z,8.10
2018-12-13T09:55:23.018Z,12.17
2018-12-13T10:00:25.704Z,8.53
2018-12-13T10:05:28.253Z,8.13
2018-12-13T10:10:30.757Z,10.17
2018-12-13T10:15:33.220Z,7.67
2018-12-13T10:20:35.724Z,10.47
2018-12-13T10:25:38.219Z,8.37
2018-12-13T10:30:40.718Z,7.33
2018-12-13T10:35:43.476Z,7.83
2018-12-13T10:40:46.008Z,8.00
2018-12-13T10:45:48.764Z,8.20
2018-12-13T10:50:51.228Z,7.40
2018-12-13T10:55:53.692Z,8.43
2018-12-13T11:01:01.758Z,8.23
2018-12-13T11:06:04.340Z,6.33
2018-12-13T11:11:07.040Z,5.77
2018-12-13T11:16:09.541Z,8.07
2018-12-13T11:21:17.484Z,7.73
2018-12-13T11:26:17.501Z,6.57
2018-12-13T11:31:19.993Z,7.53
2018-12-13T11:36:22.597Z,7.87
2018-12-13T11:41:25.093Z,6.37
2018-12-13T11:46:27.566Z,7.40
2018-12-13T11:51:30.037Z,7.13
2018-12-13T11:56:32.547Z,7.10
2018-12-13T12:01:35.401Z,6.10
2018-12-13T12:06:37.876Z,6.00
2018-12-13T12:11:40.349Z,7.07
2018-12-13T12:16:42.844Z,7.53
2018-12-13T12:21:45.327Z,7.20
2018-12-13T12:26:47.852Z,7.43
2018-12-13T12:31:50.581Z,6.03
2018-12-13T12:36:53.053Z,7.97
2018-12-13T12:41:55.516Z,6.50
2018-12-13T12:46:58.200Z,5.77
2018-12-13T12:52:00.697Z,6.57
2018-12-13T12:57:03.303Z,6.57
2018-12-13T13:02:05.802Z,5.87
2018-12-13T13:07:08.293Z,5.70
2018-12-13T13:12:10.959Z,6.10
2018-12-13T13:17:13.465Z,5.50
2018-12-13T13:22:15.929Z,7.23
2018-12-13T13:27:18.417Z,5.53
2018-12-13T13:32:20.986Z,5.90
2018-12-13T13:37:23.459Z,6.37
2018-12-13T13:42:25.953Z,5.63
2018-12-13T13:47:28.425Z,6.70
2018-12-13T13:52:30.926Z,4.87
2018-12-13T13:57:33.395Z,6.00
2018-12-13T14:02:35.866Z,5.83
2018-12-13T14:07:38.694Z,4.87
2018-12-13T14:12:41.156Z,4.73
2018-12-13T14:17:43.653Z,6.27
2018-12-13T14:22:46.473Z,6.33
2018-12-13T14:27:48.964Z,9.80
2018-12-13T14:32:51.432Z,4.90
2018-12-13T14:37:53.926Z,6.33
2018-12-13T14:42:56.397Z,5.10
2018-12-13T14:47:59.089Z,5.27
2018-12-13T14:53:01.560Z,4.50
2018-12-13T14:58:04.062Z,3.90
2018-12-13T15:03:06.521Z,6.33
2018-12-13T15:08:09.765Z,4.67
2018-12-13T15:13:12.410Z,5.00
2018-12-13T15:18:15.276Z,5.17
2018-12-13T15:23:17.958Z,5.17
2018-12-13T15:28:20.429Z,13.20
2018-12-13T15:33:22.907Z,5.22
2018-12-13T15:38:25.470Z,4.37
2018-12-13T15:43:27.996Z,5.50
2018-12-13T15:48:30.608Z,5.57
2018-12-13T15:53:33.190Z,5.97
2018-12-13T15:58:35.896Z,5.80
2018-12-13T16:03:38.365Z,4.83
2018-12-13T16:08:40.848Z,5.63
2018-12-13T16:13:43.641Z,5.30
2018-12-13T16:18:46.132Z,4.83
2018-12-13T16:23:48.603Z,4.17
2018-12-13T16:28:51.068Z,6.33
2018-12-13T16:33:53.538Z,4.67
2018-12-13T16:38:56.065Z,5.03
2018-12-13T16:43:58.541Z,5.03
2018-12-13T16:49:01.004Z,4.90
2018-12-13T16:54:03.576Z,4.55
2018-12-13T16:59:06.081Z,5.37
2018-12-13T17:04:08.583Z,5.33
2018-12-13T17:09:11.113Z,10.00
2018-12-13T17:14:13.577Z,8.10
2018-12-13T17:19:16.053Z,14.30
2018-12-13T17:24:18.645Z,6.47
2018-12-13T17:29:21.885Z,7.73
2018-12-13T17:34:24.363Z,7.13
2018-12-13T17:39:26.839Z,5.73
2018-12-13T17:44:29.338Z,5.43
2018-12-13T17:49:31.837Z,5.27
2018-12-13T17:54:34.313Z,5.37
2018-12-13T17:59:36.892Z,5.80
2018-12-13T18:04:39.362Z,7.33
2018-12-13T18:09:41.862Z,5.77
2018-12-13T18:14:44.361Z,7.03
2018-12-13T18:19:46.853Z,3.63
2018-12-13T18:24:49.513Z,6.43
2018-12-13T18:29:51.990Z,4.03
2018-12-13T18:34:54.490Z,5.90
2018-12-13T18:39:56.957Z,4.07
2018-12-13T18:44:59.460Z,3.67
2018-12-13T18:50:01.943Z,4.47
2018-12-13T18:55:05.300Z,5.10
2018-12-13T19:00:07.925Z,4.20
2018-12-13T19:05:11.360Z,4.43
2018-12-13T19:10:13.837Z,4.17
2018-12-13T19:15:16.337Z,4.53
2018-12-13T19:20:18.805Z,7.33
2018-12-13T19:25:21.274Z,4.90
2018-12-13T19:30:23.748Z,5.20
2018-12-13T19:35:26.220Z,3.70
2018-12-13T19:40:28.717Z,4.67
2018-12-13T19:45:31.472Z,3.80
2018-12-13T19:50:34.097Z,3.67
2018-12-13T19:55:37.334Z,4.47
2018-12-13T20:00:39.822Z,4.53
2018-12-13T20:05:42.323Z,3.23
2018-12-13T20:10:44.797Z,4.87
2018-12-13T20:15:47.278Z,3.47
2018-12-13T20:20:49.749Z,4.50
2018-12-13T20:25:52.217Z,4.73
2018-12-13T20:30:54.716Z,5.17
2018-12-13T20:35:57.412Z,7.47
2018-12-13T20:41:01.113Z,6.73
2018-12-13T20:46:03.773Z,6.37
2018-12-13T20:51:06.304Z,6.53
2018-12-13T20:56:08.880Z,6.57
2018-12-13T21:01:11.408Z,4.07
2018-12-13T21:06:13.923Z,8.00
2018-12-13T21:11:16.605Z,5.57
2018-12-13T21:16:19.081Z,5.87
2018-12-13T21:21:21.553Z,6.30
2018-12-13T21:26:24.021Z,6.70
2018-12-13T21:31:26.494Z,6.37
2018-12-13T21:36:29.161Z,4.93
2018-12-13T21:41:31.657Z,9.03
2018-12-13T21:46:34.180Z,4.00
2018-12-13T21:51:36.688Z,4.53
2018-12-13T21:56:39.382Z,5.90
2018-12-13T22:01:41.897Z,4.77
2018-12-13T22:06:44.425Z,5.37
2018-12-13T22:11:47.012Z,6.83
2018-12-13T22:16:49.553Z,4.13
2018-12-13T22:21:52.097Z,6.10
2018-12-13T22:26:54.693Z,4.60
2018-12-13T22:31:57.437Z,4.80
2018-12-13T22:37:00.165Z,4.70
2018-12-13T22:42:02.745Z,4.57
2018-12-13T22:47:05.313Z,4.70
2018-12-13T22:52:07.874Z,4.53
2018-12-13T22:57:10.469Z,4.13
2018-12-13T23:02:12.985Z,3.93
2018-12-13T23:07:15.548Z,5.77
2018-12-13T23:12:18.093Z,5.83
2018-12-13T23:17:21.801Z,3.87
2018-12-13T23:22:24.324Z,3.50
2018-12-13T23:27:26.852Z,3.93
2018-12-13T23:32:29.440Z,5.63
2018-12-13T23:37:31.935Z,4.37
2018-12-13T23:42:34.533Z,4.33
2018-12-13T23:47:37.121Z,4.97
2018-12-13T23:52:39.623Z,5.27
2018-12-13T23:57:42.162Z,4.37
